PORT of SHANGHAI

Country: China Country: China (CN)
Latitude / Longitude: 31.381445° / 121.601° Show on Map Show on Map
Local Time:  UTC +8
UN/LOCODE: CNSHA
Vessels in Port: 774
Expected Arrivals: 353

Recent Arrivals & Departures


Vessel Name
Arrival (UTC)
Arrival (LT)
Departure (UTC)
Departure (LT)
Vessel Type: Cargo Vessels  AN JI 8 2014-11-01 09:05:00 2014-11-01 17:05:00
Vessel Type: Cargo Vessels  HANG JIE 1001 2014-11-01 08:51:00 2014-11-01 16:51:00 2014-11-01 09:03:00 2014-11-01 17:03:00
Vessel Type: Passenger Vessels  JUN KAI 2014-11-01 09:02:00 2014-11-01 17:02:00
Vessel Type: Passenger Vessels  DONG HAI LV ZHOU 2014-11-01 09:02:00 2014-11-01 17:02:00
Vessel Type: Tugs, Pilots etc  HU GANG YIN JIAO 10 2014-11-01 08:24:00 2014-11-01 16:24:00 2014-11-01 09:02:00 2014-11-01 17:02:00
Vessel Type: Yachts & Others  YANRONGTAI007 2014-11-01 09:01:00 2014-11-01 17:01:00
Vessel Type: Cargo Vessels  QU LONG 188 2014-10-31 10:29:00 2014-10-31 18:29:00 2014-11-01 09:01:00 2014-11-01 17:01:00
Vessel Type: Cargo Vessels  RUN FA 3 2014-10-31 18:17:00 2014-11-01 02:17:00 2014-11-01 08:59:00 2014-11-01 16:59:00
Vessel Type: Passenger Vessels  YA TONG 7 2014-11-01 08:59:00 2014-11-01 16:59:00
Vessel Type: Cargo Vessels  SUZHONGCHUAN8988 2014-11-01 08:58:00 2014-11-01 16:58:00

Expected Arrivals


Vessel Name
Scheduled Arrival (UTC)
Scheduled Arrival (LT)
Estimated Arrival (UTC)
Estimated Arrival (LT)
Vessel Type: Cargo Vessels  HUIYE2 2014-10-30 09:30:00 2014-10-30 17:30:00
SHU SHAN 8 2014-10-30 12:00:00 2014-10-30 20:00:00
Vessel Type: Cargo Vessels  CSCL SUMMER 2014-10-30 14:00:00 2014-10-30 22:00:00 2014-10-30 19:47:00 2014-10-31 03:47:00
Vessel Type: Tugs, Pilots etc  HAI GANG 113 2014-10-30 14:00:00 2014-10-30 22:00:00
Vessel Type: Cargo Vessels  LI DA 3 2014-10-30 14:00:00 2014-10-30 22:00:00
Vessel Type: Cargo Vessels  HONG TONG HAI 3 2014-10-30 16:00:00 2014-10-31 00:00:00
Vessel Type: Tankers  ZHONG CHUAN RAN 1 2014-10-30 16:00:00 2014-10-31 00:00:00
Vessel Type: Cargo Vessels  GUANG SHUN DA 6 2014-10-30 17:00:00 2014-10-31 01:00:00
Vessel Type: Cargo Vessels  AMP PRINCESS 2014-10-30 17:00:00 2014-10-31 01:00:00
Vessel Type: Tankers  KE JIN HAO 2014-10-30 17:00:00 2014-10-31 01:00:00

Wind Forecast


    
Time (UTC)
Speed
Direction
Temperature
2014-11-01 09:00:00 11 knots 10° 19°C
2014-11-01 12:00:00 10 knots 18°C
2014-11-01 15:00:00 8 knots 338° 18°C
2014-11-01 18:00:00 9 knots 311° 17°C
2014-11-01 21:00:00 11 knots 297° 17°C
2014-11-02 00:00:00 20 knots 329° 17°C
2014-11-02 03:00:00 18 knots 332° 18°C
2014-11-02 06:00:00 18 knots 331° 18°C
2014-11-02 09:00:00 14 knots 348° 17°C
2014-11-02 12:00:00 15 knots 357° 16°C
2014-11-02 15:00:00 15 knots 348° 15°C
2014-11-02 18:00:00 13 knots 330° 14°C
2014-11-02 21:00:00 12 knots 326° 13°C
2014-11-03 00:00:00 11 knots 325° 14°C
2014-11-03 03:00:00 9 knots 347° 16°C
2014-11-03 06:00:00 10 knots 10° 17°C
2014-11-03 09:00:00 11 knots 25° 16°C